sensor_id;sensor_type;location;lat;lon;timestamp;P1;durP1;ratioP1;P2;durP2;ratioP2
58414;SDS011;44210;42.706;18.344;2022-11-18T14:59:15;22.00;;;3.78;;
58414;SDS011;44210;42.706;18.344;2022-11-18T15:01:42;15.93;;;5.07;;
58414;SDS011;44210;42.706;18.344;2022-11-18T15:04:08;18.15;;;3.80;;
58414;SDS011;44210;42.706;18.344;2022-11-18T15:06:34;11.20;;;3.40;;
58414;SDS011;44210;42.706;18.344;2022-11-18T15:09:01;15.65;;;4.95;;
58414;SDS011;44210;42.706;18.344;2022-11-18T15:11:27;13.10;;;3.28;;
58414;SDS011;44210;42.706;18.344;2022-11-18T15:13:53;12.13;;;3.10;;
58414;SDS011;44210;42.706;18.344;2022-11-18T15:16:20;13.40;;;3.28;;
58414;SDS011;44210;42.706;18.344;2022-11-18T15:18:47;11.38;;;2.83;;
58414;SDS011;44210;42.706;18.344;2022-11-18T15:21:14;10.60;;;3.05;;
58414;SDS011;44210;42.706;18.344;2022-11-18T15:23:40;13.10;;;2.97;;
58414;SDS011;44210;42.706;18.344;2022-11-18T15:28:42;17.23;;;3.70;;
58414;SDS011;44210;42.706;18.344;2022-11-18T15:31:08;13.90;;;3.63;;
58414;SDS011;44210;42.706;18.344;2022-11-18T15:33:34;10.57;;;3.75;;
58414;SDS011;44210;42.706;18.344;2022-11-18T15:35:59;23.70;;;6.18;;
58414;SDS011;44210;42.706;18.344;2022-11-18T15:38:26;20.02;;;4.03;;
58414;SDS011;44210;42.706;18.344;2022-11-18T15:40:52;12.38;;;3.25;;
58414;SDS011;44210;42.706;18.344;2022-11-18T15:43:18;14.00;;;3.05;;
58414;SDS011;44210;42.706;18.344;2022-11-18T15:45:43;14.43;;;2.83;;
58414;SDS011;44210;42.706;18.344;2022-11-18T15:48:10;12.07;;;2.25;;
58414;SDS011;44210;42.706;18.344;2022-11-18T15:50:36;13.45;;;2.42;;
58414;SDS011;44210;42.706;18.344;2022-11-18T15:53:02;18.15;;;3.33;;
58414;SDS011;44210;42.706;18.344;2022-11-18T15:55:28;12.45;;;2.60;;
58414;SDS011;44210;42.706;18.344;2022-11-18T15:57:54;15.90;;;2.90;;
58414;SDS011;44210;42.706;18.344;2022-11-18T16:00:20;18.23;;;4.10;;
58414;SDS011;44210;42.706;18.344;2022-11-18T16:02:46;11.00;;;2.92;;
58414;SDS011;44210;42.706;18.344;2022-11-18T16:05:12;14.98;;;3.53;;
58414;SDS011;44210;42.706;18.344;2022-11-18T16:07:38;14.68;;;3.97;;
58414;SDS011;44210;42.706;18.344;2022-11-18T16:10:04;11.88;;;2.90;;
58414;SDS011;44210;42.706;18.344;2022-11-18T16:12:49;8.00;;;2.60;;
58414;SDS011;44210;42.706;18.344;2022-11-18T16:15:16;11.13;;;3.00;;
58414;SDS011;44210;42.706;18.344;2022-11-18T16:18:01;16.02;;;3.80;;
58414;SDS011;44210;42.706;18.344;2022-11-18T16:20:27;13.10;;;3.10;;
58414;SDS011;44210;42.706;18.344;2022-11-18T16:22:54;17.20;;;4.03;;
58414;SDS011;44210;42.706;18.344;2022-11-18T16:25:21;10.05;;;3.40;;
58414;SDS011;44210;42.706;18.344;2022-11-18T16:27:48;10.85;;;2.85;;
58414;SDS011;44210;42.706;18.344;2022-11-18T16:30:14;12.52;;;3.35;;
58414;SDS011;44210;42.706;18.344;2022-11-18T16:33:00;16.17;;;3.45;;
58414;SDS011;44210;42.706;18.344;2022-11-18T16:35:26;14.32;;;3.28;;
58414;SDS011;44210;42.706;18.344;2022-11-18T16:37:53;12.40;;;3.47;;
58414;SDS011;44210;42.706;18.344;2022-11-18T16:40:19;15.35;;;3.75;;
58414;SDS011;44210;42.706;18.344;2022-11-18T16:42:51;15.48;;;3.88;;
58414;SDS011;44210;42.706;18.344;2022-11-18T16:45:17;10.90;;;2.85;;
58414;SDS011;44210;42.706;18.344;2022-11-18T16:47:44;7.07;;;2.63;;
58414;SDS011;44210;42.706;18.344;2022-11-18T16:50:10;9.57;;;2.20;;
58414;SDS011;44210;42.706;18.344;2022-11-18T16:52:37;9.93;;;2.33;;
58414;SDS011;44210;42.706;18.344;2022-11-18T16:55:03;10.38;;;3.13;;
58414;SDS011;44210;42.706;18.344;2022-11-18T16:57:29;9.55;;;2.67;;
58414;SDS011;44210;42.706;18.344;2022-11-18T16:59:55;7.00;;;2.33;;
58414;SDS011;44210;42.706;18.344;2022-11-18T17:02:21;4.35;;;1.90;;
58414;SDS011;44210;42.706;18.344;2022-11-18T17:04:48;6.32;;;2.55;;
58414;SDS011;44210;42.706;18.344;2022-11-18T17:07:14;7.47;;;3.00;;
58414;SDS011;44210;42.706;18.344;2022-11-18T17:09:41;9.18;;;2.53;;
58414;SDS011;44210;42.706;18.344;2022-11-18T17:12:07;5.65;;;2.10;;
58414;SDS011;44210;42.706;18.344;2022-11-18T17:14:33;3.85;;;2.13;;
58414;SDS011;44210;42.706;18.344;2022-11-18T17:17:02;7.88;;;3.40;;
58414;SDS011;44210;42.706;18.344;2022-11-18T17:19:28;7.43;;;3.55;;
58414;SDS011;44210;42.706;18.344;2022-11-18T17:21:54;5.00;;;3.25;;
58414;SDS011;44210;42.706;18.344;2022-11-18T17:24:21;6.18;;;3.28;;
58414;SDS011;44210;42.706;18.344;2022-11-18T17:26:48;6.68;;;2.22;;
58414;SDS011;44210;42.706;18.344;2022-11-18T17:29:14;5.85;;;3.30;;
58414;SDS011;44210;42.706;18.344;2022-11-18T17:31:41;4.53;;;3.65;;
58414;SDS011;44210;42.706;18.344;2022-11-18T17:34:10;121.65;;;106.50;;
58414;SDS011;44210;42.706;18.344;2022-11-18T17:36:37;84.25;;;75.75;;
58414;SDS011;44210;42.706;18.344;2022-11-18T17:39:03;21.98;;;19.30;;
58414;SDS011;44210;42.706;18.344;2022-11-18T17:41:29;5.45;;;3.00;;
58414;SDS011;44210;42.706;18.344;2022-11-18T17:44:14;2.72;;;1.40;;
58414;SDS011;44210;42.706;18.344;2022-11-18T17:46:40;2.63;;;1.25;;
58414;SDS011;44210;42.706;18.344;2022-11-18T17:49:10;7.78;;;1.67;;
58414;SDS011;44210;42.706;18.344;2022-11-18T17:51:37;3.20;;;1.90;;
58414;SDS011;44210;42.706;18.344;2022-11-18T17:54:03;4.28;;;2.53;;
58414;SDS011;44210;42.706;18.344;2022-11-18T17:56:30;5.30;;;3.70;;
58414;SDS011;44210;42.706;18.344;2022-11-18T17:58:56;6.47;;;5.55;;
58414;SDS011;44210;42.706;18.344;2022-11-18T18:01:22;8.52;;;6.88;;
58414;SDS011;44210;42.706;18.344;2022-11-18T18:03:48;6.70;;;4.80;;
58414;SDS011;44210;42.706;18.344;2022-11-18T18:06:14;8.30;;;5.72;;
58414;SDS011;44210;42.706;18.344;2022-11-18T18:08:41;13.73;;;9.07;;
58414;SDS011;44210;42.706;18.344;2022-11-18T18:11:09;10.85;;;8.68;;
58414;SDS011;44210;42.706;18.344;2022-11-18T18:13:35;10.93;;;9.05;;
58414;SDS011;44210;42.706;18.344;2022-11-18T18:16:20;15.05;;;10.85;;
58414;SDS011;44210;42.706;18.344;2022-11-18T18:18:46;13.63;;;12.02;;
58414;SDS011;44210;42.706;18.344;2022-11-18T18:21:12;16.58;;;13.55;;
58414;SDS011;44210;42.706;18.344;2022-11-18T18:23:38;17.80;;;15.40;;
58414;SDS011;44210;42.706;18.344;2022-11-18T18:26:05;22.45;;;17.38;;
58414;SDS011;44210;42.706;18.344;2022-11-18T18:28:31;18.98;;;16.48;;
58414;SDS011;44210;42.706;18.344;2022-11-18T18:30:58;20.38;;;18.17;;
58414;SDS011;44210;42.706;18.344;2022-11-18T18:33:24;22.98;;;18.25;;
58414;SDS011;44210;42.706;18.344;2022-11-18T18:35:54;21.10;;;18.10;;
58414;SDS011;44210;42.706;18.344;2022-11-18T18:38:20;21.17;;;18.20;;
58414;SDS011;44210;42.706;18.344;2022-11-18T18:40:46;25.77;;;21.23;;
58414;SDS011;44210;42.706;18.344;2022-11-18T18:43:12;28.27;;;22.73;;
58414;SDS011;44210;42.706;18.344;2022-11-18T18:45:38;30.60;;;25.23;;
58414;SDS011;44210;42.706;18.344;2022-11-18T18:48:23;28.48;;;24.67;;
58414;SDS011;44210;42.706;18.344;2022-11-18T18:50:49;34.35;;;28.67;;
58414;SDS011;44210;42.706;18.344;2022-11-18T18:53:15;38.10;;;30.73;;
58414;SDS011;44210;42.706;18.344;2022-11-18T18:55:41;40.65;;;30.55;;
58414;SDS011;44210;42.706;18.344;2022-11-18T18:58:07;46.13;;;34.53;;
58414;SDS011;44210;42.706;18.344;2022-11-18T19:00:33;52.08;;;36.22;;
58414;SDS011;44210;42.706;18.344;2022-11-18T19:02:59;36.92;;;30.27;;
58414;SDS011;44210;42.706;18.344;2022-11-18T19:05:28;27.17;;;22.55;;
58414;SDS011;44210;42.706;18.344;2022-11-18T19:07:54;25.40;;;22.08;;
58414;SDS011;44210;42.706;18.344;2022-11-18T19:10:20;24.40;;;21.80;;
58414;SDS011;44210;42.706;18.344;2022-11-18T19:12:46;24.50;;;17.35;;
58414;SDS011;44210;42.706;18.344;2022-11-18T19:15:18;13.60;;;11.98;;
58414;SDS011;44210;42.706;18.344;2022-11-18T19:17:46;16.73;;;12.55;;
58414;SDS011;44210;42.706;18.344;2022-11-18T19:20:13;13.20;;;10.45;;
58414;SDS011;44210;42.706;18.344;2022-11-18T19:23:01;12.23;;;8.77;;
58414;SDS011;44210;42.706;18.344;2022-11-18T19:25:27;9.18;;;6.63;;
58414;SDS011;44210;42.706;18.344;2022-11-18T19:27:54;8.77;;;6.60;;
58414;SDS011;44210;42.706;18.344;2022-11-18T19:30:20;7.82;;;5.82;;
58414;SDS011;44210;42.706;18.344;2022-11-18T19:32:46;12.27;;;7.93;;
58414;SDS011;44210;42.706;18.344;2022-11-18T19:35:12;10.85;;;6.55;;
58414;SDS011;44210;42.706;18.344;2022-11-18T19:37:39;11.43;;;7.15;;
58414;SDS011;44210;42.706;18.344;2022-11-18T19:40:05;8.07;;;6.32;;
58414;SDS011;44210;42.706;18.344;2022-11-18T19:42:31;8.45;;;6.82;;
58414;SDS011;44210;42.706;18.344;2022-11-18T19:45:01;8.95;;;6.90;;
58414;SDS011;44210;42.706;18.344;2022-11-18T19:47:27;11.48;;;8.10;;
58414;SDS011;44210;42.706;18.344;2022-11-18T19:49:53;11.90;;;10.00;;
58414;SDS011;44210;42.706;18.344;2022-11-18T19:52:19;18.00;;;11.27;;
58414;SDS011;44210;42.706;18.344;2022-11-18T19:54:45;15.60;;;11.23;;
58414;SDS011;44210;42.706;18.344;2022-11-18T19:57:11;14.32;;;12.25;;
58414;SDS011;44210;42.706;18.344;2022-11-18T19:59:37;17.17;;;13.13;;
58414;SDS011;44210;42.706;18.344;2022-11-18T20:02:03;17.67;;;14.55;;
58414;SDS011;44210;42.706;18.344;2022-11-18T20:04:29;17.35;;;14.98;;
58414;SDS011;44210;42.706;18.344;2022-11-18T20:06:55;19.63;;;16.02;;
58414;SDS011;44210;42.706;18.344;2022-11-18T20:09:21;24.35;;;19.45;;
58414;SDS011;44210;42.706;18.344;2022-11-18T20:11:49;23.88;;;21.48;;
58414;SDS011;44210;42.706;18.344;2022-11-18T20:14:16;20.08;;;16.05;;
58414;SDS011;44210;42.706;18.344;2022-11-18T20:16:42;17.38;;;14.02;;
58414;SDS011;44210;42.706;18.344;2022-11-18T20:19:08;14.55;;;12.20;;
58414;SDS011;44210;42.706;18.344;2022-11-18T20:21:37;16.65;;;14.15;;
58414;SDS011;44210;42.706;18.344;2022-11-18T20:24:04;16.17;;;11.82;;
58414;SDS011;44210;42.706;18.344;2022-11-18T20:26:31;19.02;;;10.98;;
58414;SDS011;44210;42.706;18.344;2022-11-18T20:28:58;11.95;;;9.70;;
58414;SDS011;44210;42.706;18.344;2022-11-18T20:31:24;10.95;;;8.40;;
58414;SDS011;44210;42.706;18.344;2022-11-18T20:33:52;11.23;;;7.07;;
58414;SDS011;44210;42.706;18.344;2022-11-18T20:38:47;8.07;;;5.25;;
58414;SDS011;44210;42.706;18.344;2022-11-18T20:41:14;9.27;;;5.63;;
58414;SDS011;44210;42.706;18.344;2022-11-18T20:43:40;9.45;;;6.88;;
58414;SDS011;44210;42.706;18.344;2022-11-18T20:46:08;9.85;;;6.90;;
58414;SDS011;44210;42.706;18.344;2022-11-18T20:48:34;7.88;;;6.20;;
58414;SDS011;44210;42.706;18.344;2022-11-18T20:51:08;8.18;;;4.82;;
58414;SDS011;44210;42.706;18.344;2022-11-18T20:53:35;6.75;;;4.90;;
58414;SDS011;44210;42.706;18.344;2022-11-18T20:56:05;9.60;;;5.70;;
58414;SDS011;44210;42.706;18.344;2022-11-18T20:58:31;8.38;;;5.20;;
58414;SDS011;44210;42.706;18.344;2022-11-18T21:01:10;7.47;;;5.40;;
58414;SDS011;44210;42.706;18.344;2022-11-18T21:03:37;9.18;;;5.22;;
58414;SDS011;44210;42.706;18.344;2022-11-18T21:06:07;7.07;;;6.20;;
58414;SDS011;44210;42.706;18.344;2022-11-18T21:08:33;7.32;;;6.50;;
58414;SDS011;44210;42.706;18.344;2022-11-18T21:11:00;7.07;;;5.40;;
58414;SDS011;44210;42.706;18.344;2022-11-18T21:13:27;6.55;;;4.50;;
58414;SDS011;44210;42.706;18.344;2022-11-18T21:16:12;5.38;;;4.45;;
58414;SDS011;44210;42.706;18.344;2022-11-18T21:18:38;5.78;;;4.07;;
58414;SDS011;44210;42.706;18.344;2022-11-18T21:21:04;8.95;;;4.57;;
58414;SDS011;44210;42.706;18.344;2022-11-18T21:23:56;7.93;;;3.70;;
58414;SDS011;44210;42.706;18.344;2022-11-18T21:28:48;7.13;;;4.15;;
58414;SDS011;44210;42.706;18.344;2022-11-18T21:31:14;6.30;;;4.60;;
58414;SDS011;44210;42.706;18.344;2022-11-18T21:33:40;7.93;;;5.65;;
58414;SDS011;44210;42.706;18.344;2022-11-18T21:36:06;9.52;;;7.07;;
58414;SDS011;44210;42.706;18.344;2022-11-18T21:38:33;10.07;;;7.07;;
58414;SDS011;44210;42.706;18.344;2022-11-18T21:41:02;9.07;;;6.97;;
58414;SDS011;44210;42.706;18.344;2022-11-18T21:43:32;10.30;;;6.82;;
58414;SDS011;44210;42.706;18.344;2022-11-18T21:46:05;9.02;;;6.93;;
58414;SDS011;44210;42.706;18.344;2022-11-18T21:48:31;9.10;;;7.15;;
58414;SDS011;44210;42.706;18.344;2022-11-18T21:50:58;12.13;;;10.63;;
58414;SDS011;44210;42.706;18.344;2022-11-18T21:53:24;15.07;;;12.10;;
58414;SDS011;44210;42.706;18.344;2022-11-18T21:55:50;12.60;;;11.07;;
58414;SDS011;44210;42.706;18.344;2022-11-18T21:58:16;11.60;;;9.70;;
58414;SDS011;44210;42.706;18.344;2022-11-18T22:00:43;12.23;;;9.48;;
58414;SDS011;44210;42.706;18.344;2022-11-18T22:03:09;9.88;;;8.15;;
58414;SDS011;44210;42.706;18.344;2022-11-18T22:05:35;7.10;;;5.47;;
58414;SDS011;44210;42.706;18.344;2022-11-18T22:08:01;9.10;;;4.80;;
58414;SDS011;44210;42.706;18.344;2022-11-18T22:10:27;8.80;;;6.30;;
58414;SDS011;44210;42.706;18.344;2022-11-18T22:12:53;8.32;;;6.22;;
58414;SDS011;44210;42.706;18.344;2022-11-18T22:15:19;7.18;;;5.25;;
58414;SDS011;44210;42.706;18.344;2022-11-18T22:17:45;10.40;;;5.75;;
58414;SDS011;44210;42.706;18.344;2022-11-18T22:20:11;8.30;;;6.15;;
58414;SDS011;44210;42.706;18.344;2022-11-18T22:22:37;8.27;;;5.97;;
58414;SDS011;44210;42.706;18.344;2022-11-18T22:25:03;9.57;;;6.28;;
58414;SDS011;44210;42.706;18.344;2022-11-18T22:27:29;15.98;;;7.75;;
58414;SDS011;44210;42.706;18.344;2022-11-18T22:29:55;6.80;;;5.03;;
58414;SDS011;44210;42.706;18.344;2022-11-18T22:32:21;6.38;;;4.60;;
58414;SDS011;44210;42.706;18.344;2022-11-18T22:34:47;9.25;;;5.65;;
58414;SDS011;44210;42.706;18.344;2022-11-18T22:37:13;10.50;;;4.85;;
58414;SDS011;44210;42.706;18.344;2022-11-18T22:39:39;8.40;;;4.40;;
58414;SDS011;44210;42.706;18.344;2022-11-18T22:42:07;8.40;;;4.68;;
58414;SDS011;44210;42.706;18.344;2022-11-18T22:44:51;7.00;;;4.60;;
58414;SDS011;44210;42.706;18.344;2022-11-18T22:47:17;10.13;;;5.57;;
58414;SDS011;44210;42.706;18.344;2022-11-18T22:49:43;4.75;;;4.05;;
58414;SDS011;44210;42.706;18.344;2022-11-18T22:52:09;4.80;;;3.45;;
58414;SDS011;44210;42.706;18.344;2022-11-18T22:54:35;7.93;;;3.78;;
58414;SDS011;44210;42.706;18.344;2022-11-18T22:57:02;5.18;;;3.67;;
58414;SDS011;44210;42.706;18.344;2022-11-18T22:59:28;6.43;;;3.50;;
58414;SDS011;44210;42.706;18.344;2022-11-18T23:01:54;10.82;;;3.70;;
58414;SDS011;44210;42.706;18.344;2022-11-18T23:04:20;5.57;;;4.03;;
58414;SDS011;44210;42.706;18.344;2022-11-18T23:06:47;6.20;;;4.50;;
58414;SDS011;44210;42.706;18.344;2022-11-18T23:09:13;8.48;;;5.93;;
58414;SDS011;44210;42.706;18.344;2022-11-18T23:11:39;7.75;;;4.63;;
58414;SDS011;44210;42.706;18.344;2022-11-18T23:14:23;8.23;;;4.72;;
58414;SDS011;44210;42.706;18.344;2022-11-18T23:16:49;6.80;;;3.60;;
58414;SDS011;44210;42.706;18.344;2022-11-18T23:19:15;6.88;;;2.95;;
58414;SDS011;44210;42.706;18.344;2022-11-18T23:21:42;4.13;;;3.08;;
58414;SDS011;44210;42.706;18.344;2022-11-18T23:24:09;4.57;;;2.67;;
58414;SDS011;44210;42.706;18.344;2022-11-18T23:26:35;6.57;;;2.60;;
58414;SDS011;44210;42.706;18.344;2022-11-18T23:29:01;5.07;;;2.70;;
58414;SDS011;44210;42.706;18.344;2022-11-18T23:31:27;4.78;;;3.30;;
58414;SDS011;44210;42.706;18.344;2022-11-18T23:33:54;8.90;;;3.63;;
58414;SDS011;44210;42.706;18.344;2022-11-18T23:36:20;7.18;;;3.55;;
58414;SDS011;44210;42.706;18.344;2022-11-18T23:38:47;4.80;;;3.00;;
58414;SDS011;44210;42.706;18.344;2022-11-18T23:41:14;5.25;;;2.58;;
58414;SDS011;44210;42.706;18.344;2022-11-18T23:43:40;4.80;;;2.50;;
58414;SDS011;44210;42.706;18.344;2022-11-18T23:46:06;2.50;;;2.03;;
58414;SDS011;44210;42.706;18.344;2022-11-18T23:48:34;5.35;;;2.90;;
58414;SDS011;44210;42.706;18.344;2022-11-18T23:51:02;4.07;;;2.53;;
58414;SDS011;44210;42.706;18.344;2022-11-18T23:53:28;4.07;;;2.65;;
58414;SDS011;44210;42.706;18.344;2022-11-18T23:55:55;3.70;;;2.60;;
58414;SDS011;44210;42.706;18.344;2022-11-18T23:58:21;5.03;;;2.25;;
